Etusivu
METAR-TAF:

METAR-TAF

Lentoasemat :

Gillette, Wyoming, Yhdysvallat

Leveyspiiri: 44-20-22N, Pituuspiiri: 105-32-31W, korkeus merenpinnasta: 1330 m

Tämänhetkinen sää

Tämä raportti tehtiin 44 minuuttia sitten, kello 08.53 UTC
tyyntä
Lämpötila 16°C
Kosteus 77%
Ilmanpaine 1020 hPa
Näkyvyys: 16.1 km
selkeää

METAR: KGCC 140853Z AUTO 00000KT 10SM CLR 16/12 A3013 RMK AO2 SLP151 T01560117 50000

Aika: 03:37 (09:37 UTC)

Sääennuste

Tämä raportti tehtiin 4 tuntia ja 17 minuuttia sitten, kello 05.20 UTC
Ennuste voimassa 14. päivästä klo 06 UTC - 15. päivään klo 06 UTC
Tuuli 10 kn etelästä/kaakosta
Näkyvyys: 10 km
selkeää
From 14. päivästä klo 1600 UTC
Tuuli 15 kn kaakosta puuskistuen 25 kn:hen
Näkyvyys: 10 km
selkeää

TAF: KGCC 140520Z 1406/1506 16010KT P6SM SKC FM141600 14015G25KT P6SM SKC

Säähavainnot ja -ennusteet yli 4000 lentoasemalta (METAR- ja TAF-raportit).

Käytössä olevat sääasemat on merkitty karttaan keltaisilla ja punaisilla pisteillä.

Aseta hiiri pisteen päälle nähdäksesi sääaseman nimen.

Klikkaa sitten nähdäksesi säähavainnot ja -ennusteet.

Kartan vaihtaminen: klikkaa mustalla rastilla varustettuja vihreitä pisteitä, niin voit zoomata sisään; viivalla varustettua vihreää pistettä, niin voit zoomata ulos tai vihreitä nuolia, niin pääset viereisille kartoille.


METAR-TAF: